Time;durP1;ratioP1;P1;durP2;ratioP2;P2;SDS_P1;SDS_P2;PMS_P1;PMS_P2;Temp;Humidity;BMP_temperature;BMP_pressure;BME280_temperature;BME280_humidity;BME280_pressure;Samples;Min_cycle;Max_cycle;Signal;HPM_P1;HPM_P2
2022/06/15 00:02:12;;;;;;;;;;;;;;;;;;5127336;28;20402;-67
2022/06/15 00:04:38;;;;;;;;;;;;;;;;;;5127266;28;19953;-67
2022/06/15 00:07:04;;;;;;;;;;;;;;;;;;5126158;28;19924;-67
2022/06/15 00:09:30;;;;;;;;;;;;;;;;;;5127207;28;19924;-67
2022/06/15 00:11:56;;;;;;;;;;;;;;;;;;5125325;28;19924;-67
2022/06/15 00:14:22;;;;;;;;;;;;;;;;;;5127268;28;20266;-67
2022/06/15 00:16:48;;;;;;;;;;;;;;;;;;5126488;28;19930;-68
2022/06/15 00:19:14;;;;;;;;;;;;;;;;;;5127455;28;20300;-67
2022/06/15 00:21:40;;;;;;;;;;;;;;;;;;5127112;28;19931;-67
2022/06/15 00:24:06;;;;;;;;;;;;;;;;;;5125675;28;19931;-68
2022/06/15 00:26:32;;;;;;;;;;;;;;;;;;5154670;27;19928;-67
2022/06/15 00:28:58;;;;;;;;;;;;;;;;;;5126862;28;19967;-68
2022/06/15 00:31:24;;;;;;;;;;;;;;;;;;5126880;28;20380;-67
2022/06/15 00:33:50;;;;;;;;;;;;;;;;;;5126745;28;19987;-68
2022/06/15 00:36:17;;;;;;;;;;;;;;;;;;5125371;28;19983;-67
2022/06/15 00:38:43;;;;;;;;;;;;;;;;;;5125273;28;19928;-67
2022/06/15 00:41:09;;;;;;;;;;;;;;;;;;5126738;28;19949;-67
2022/06/15 00:43:35;;;;;;;;;;;;;;;;;;5126493;28;19923;-67
2022/06/15 00:46:01;;;;;;;;;;;;;;;;;;5123738;28;19931;-68
2022/06/15 00:48:28;;;;;;;;;;;;;;;;;;5159924;27;19920;-68
2022/06/15 00:50:54;;;;;;;;;;;;;;;;;;5123685;27;19924;-68
2022/06/15 00:53:20;;;;;;;;;;;;;;;;;;5126498;28;20280;-68
2022/06/15 00:55:46;;;;;;;;;;;;;;;;;;5126015;27;19924;-68
2022/06/15 00:58:13;;;;;;;;;;;;;;;;;;5126529;28;19923;-68
2022/06/15 01:00:39;;;;;;;;;;;;;;;;;;5126154;28;19949;-68
2022/06/15 01:03:05;;;;;;;;;;;;;;;;;;5124856;28;19927;-68
2022/06/15 01:05:31;;;;;;;;;;;;;;;;;;5126397;28;19969;-68
2022/06/15 01:07:57;;;;;;;;;;;;;;;;;;5126336;28;19924;-68
2022/06/15 01:10:23;;;;;;;;;;;;;;;;;;5126409;28;19968;-68
2022/06/15 01:12:50;;;;;;;;;;;;;;;;;;5126178;28;19944;-68
2022/06/15 01:15:16;;;;;;;;;;;;;;;;;;5125171;28;19928;-69
2022/06/15 01:17:42;;;;;;;;;;;;;;;;;;5125797;28;19930;-68
2022/06/15 01:20:08;;;;;;;;;;;;;;;;;;5126034;28;19924;-69
2022/06/15 01:22:34;;;;;;;;;;;;;;;;;;5126095;28;19931;-68
2022/06/15 01:25:00;;;;;;;;;;;;;;;;;;5125851;28;19987;-68
2022/06/15 01:27:26;;;;;;;;;;;;;;;;;;5125919;28;20010;-68
2022/06/15 01:29:52;;;;;;;;;;;;;;;;;;5124989;28;19924;-68
2022/06/15 01:32:18;;;;;;;;;;;;;;;;;;5125832;28;19923;-68
2022/06/15 01:34:44;;;;;;;;;;;;;;;;;;5125358;28;19920;-68
2022/06/15 01:37:10;;;;;;;;;;;;;;;;;;5125735;28;19928;-68
2022/06/15 01:39:36;;;;;;;;;;;;;;;;;;5125831;28;19934;-68
2022/06/15 01:42:01;;;;;;;;;;;;;;;;;;5125678;28;19931;-69
2022/06/15 01:44:27;;;;;;;;;;;;;;;;;;5125422;28;20374;-68
2022/06/15 01:46:53;;;;;;;;;;;;;;;;;;5125628;28;19945;-69
2022/06/15 01:49:19;;;;;;;;;;;;;;;;;;5123997;28;19945;-68
2022/06/15 01:51:45;;;;;;;;;;;;;;;;;;5125661;28;19928;-68
2022/06/15 01:54:11;;;;;;;;;;;;;;;;;;5124864;28;19924;-68
2022/06/15 01:56:37;;;;;;;;;;;;;;;;;;5124288;28;20383;-68
2022/06/15 01:59:03;;;;;;;;;;;;;;;;;;5122481;28;20303;-68
2022/06/15 02:01:30;;;;;;;;;;;;;;;;;;5123809;28;20391;-68
2022/06/15 02:03:56;;;;;;;;;;;;;;;;;;5125501;28;19927;-69
2022/06/15 02:06:22;;;;;;;;;;;;;;;;;;5124317;28;19924;-68
2022/06/15 02:08:48;;;;;;;;;;;;;;;;;;5125376;28;19924;-68
2022/06/15 02:11:15;;;;;;;;;;;;;;;;;;5125532;28;19935;-68
2022/06/15 02:13:42;;;;;;;;;;;;;;;;;;5126017;28;19939;-68
2022/06/15 02:16:08;;;;;;;;;;;;;;;;;;5129556;27;19924;-68
2022/06/15 02:18:34;;;;;;;;;;;;;;;;;;5129606;28;19924;-69
2022/06/15 02:21:00;;;;;;;;;;;;;;;;;;5129402;28;19924;-68
2022/06/15 02:23:26;;;;;;;;;;;;;;;;;;5129307;28;19946;-68
2022/06/15 02:25:52;;;;;;;;;;;;;;;;;;5127415;28;19924;-68
2022/06/15 02:28:18;;;;;;;;;;;;;;;;;;5129150;28;20375;-68
2022/06/15 02:30:44;;;;;;;;;;;;;;;;;;5129343;28;19930;-68
2022/06/15 02:33:10;;;;;;;;;;;;;;;;;;5128307;28;19931;-69
2022/06/15 02:35:36;;;;;;;;;;;;;;;;;;5129313;28;19931;-68
2022/06/15 02:38:02;;;;;;;;;;;;;;;;;;5129095;28;19923;-68
2022/06/15 02:40:28;;;;;;;;;;;;;;;;;;5162223;27;19924;-68
2022/06/15 02:42:54;;;;;;;;;;;;;;;;;;5129040;28;19924;-68
2022/06/15 02:45:20;;;;;;;;;;;;;;;;;;5128892;28;20307;-69
2022/06/15 02:47:46;;;;;;;;;;;;;;;;;;5128968;28;19924;-68
2022/06/15 02:50:13;;;;;;;;;;;;;;;;;;5128088;28;19931;-68
2022/06/15 02:52:39;;;;;;;;;;;;;;;;;;5128703;28;19931;-69
2022/06/15 02:55:05;;;;;;;;;;;;;;;;;;5161526;27;19923;-69
2022/06/15 02:57:31;;;;;;;;;;;;;;;;;;5128689;28;19994;-68
2022/06/15 02:59:57;;;;;;;;;;;;;;;;;;5128293;28;19924;-68
2022/06/15 03:02:24;;;;;;;;;;;;;;;;;;5127823;28;20307;-68
2022/06/15 03:04:50;;;;;;;;;;;;;;;;;;5128418;28;19924;-68
2022/06/15 03:07:16;;;;;;;;;;;;;;;;;;5128153;28;19923;-68
2022/06/15 03:09:42;;;;;;;;;;;;;;;;;;5127957;28;19934;-68
2022/06/15 03:12:10;;;;;;;;;;;;;;;;;;5128087;28;19924;-68
2022/06/15 03:14:36;;;;;;;;;;;;;;;;;;5127523;28;19924;-68
2022/06/15 03:17:02;;;;;;;;;;;;;;;;;;5127257;28;19995;-68
2022/06/15 03:19:28;;;;;;;;;;;;;;;;;;5128233;27;20010;-68
2022/06/15 03:21:54;;;;;;;;;;;;;;;;;;5128178;28;20010;-68
2022/06/15 03:24:21;;;;;;;;;;;;;;;;;;5127958;28;19923;-68
2022/06/15 03:26:47;;;;;;;;;;;;;;;;;;5127621;28;19924;-68
2022/06/15 03:29:13;;;;;;;;;;;;;;;;;;5127977;28;19930;-68
2022/06/15 03:31:39;;;;;;;;;;;;;;;;;;5122625;28;19923;-68
2022/06/15 03:34:05;;;;;;;;;;;;;;;;;;5127959;28;19997;-68
2022/06/15 03:36:31;;;;;;;;;;;;;;;;;;5127901;28;19923;-68
2022/06/15 03:38:57;;;;;;;;;;;;;;;;;;5128059;28;20383;-68
2022/06/15 03:41:23;;;;;;;;;;;;;;;;;;5127819;28;19946;-68
2022/06/15 03:43:49;;;;;;;;;;;;;;;;;;5126970;28;19924;-68
2022/06/15 03:46:15;;;;;;;;;;;;;;;;;;5127802;28;19938;-68
2022/06/15 03:48:41;;;;;;;;;;;;;;;;;;5127476;28;19924;-68
2022/06/15 03:51:07;;;;;;;;;;;;;;;;;;5126992;28;19931;-68
2022/06/15 03:53:33;;;;;;;;;;;;;;;;;;5127550;28;19928;-67
2022/06/15 03:55:59;;;;;;;;;;;;;;;;;;5127634;27;19924;-68
2022/06/15 03:58:26;;;;;;;;;;;;;;;;;;5126721;28;20017;-67
2022/06/15 04:00:52;;;;;;;;;;;;;;;;;;5124898;28;19924;-68
2022/06/15 04:03:18;;;;;;;;;;;;;;;;;;5127329;28;19928;-68
2022/06/15 04:05:44;;;;;;;;;;;;;;;;;;5124180;28;20299;-68
2022/06/15 04:10:55;;;;;;;;;;;;;;;;;;5125447;28;20452;-68
2022/06/15 04:13:21;;;;;;;;;;;;;;;;;;5127169;28;19924;-68
2022/06/15 04:15:47;;;;;;;;;;;;;;;;;;5126754;28;19976;-69
2022/06/15 04:18:13;;;;;;;;;;;;;;;;;;5125649;28;19924;-68
2022/06/15 04:20:40;;;;;;;;;;;;;;;;;;5125203;28;19924;-68
2022/06/15 04:23:06;;;;;;;;;;;;;;;;;;5124315;28;20302;-68
2022/06/15 04:25:32;;;;;;;;;;;;;;;;;;5129683;27;20298;-68
2022/06/15 04:27:58;;;;;;;;;;;;;;;;;;5131827;27;19945;-68
2022/06/15 04:30:24;;;;;;;;;;;;;;;;;;5126167;28;19920;-68
2022/06/15 04:32:50;;;;;;;;;;;;;;;;;;5126914;28;19924;-68
2022/06/15 04:35:16;;;;;;;;;;;;;;;;;;5125284;28;19923;-68
2022/06/15 04:37:42;;;;;;;;;;;;;;;;;;5124769;28;19924;-68
2022/06/15 04:40:08;;;;;;;;;;;;;;;;;;5126506;28;19931;-68
2022/06/15 04:42:34;;;;;;;;;;;;;;;;;;5126620;28;19928;-68
2022/06/15 04:45:00;;;;;;;;;;;;;;;;;;5126381;28;19923;-67
2022/06/15 04:47:26;;;;;;;;;;;;;;;;;;5126488;28;19949;-68
2022/06/15 04:49:52;;;;;;;;;;;;;;;;;;5119913;28;19935;-68
2022/06/15 04:52:18;;;;;;;;;;;;;;;;;;5126371;28;19923;-68
2022/06/15 04:54:44;;;;;;;;;;;;;;;;;;5126482;27;19934;-68
2022/06/15 04:57:10;;;;;;;;;;;;;;;;;;5126175;28;19923;-68
2022/06/15 04:59:36;;;;;;;;;;;;;;;;;;5124964;27;20276;-67
2022/06/15 05:02:03;;;;;;;;;;;;;;;;;;5124738;28;19923;-68
2022/06/15 05:04:29;;;;;;;;;;;;;;;;;;5125930;28;19923;-68
2022/06/15 05:06:55;;;;;;;;;;;;;;;;;;5124904;28;19934;-68
2022/06/15 05:09:21;;;;;;;;;;;;;;;;;;5126087;28;19928;-68
2022/06/15 05:11:47;;;;;;;;;;;;;;;;;;5126343;28;19928;-69
2022/06/15 05:14:13;;;;;;;;;;;;;;;;;;5125980;28;20441;-67
2022/06/15 05:16:39;;;;;;;;;;;;;;;;;;5125285;28;19955;-67
2022/06/15 05:19:05;;;;;;;;;;;;;;;;;;5124210;28;19924;-67
2022/06/15 05:21:31;;;;;;;;;;;;;;;;;;5125776;28;19924;-68
2022/06/15 05:23:57;;;;;;;;;;;;;;;;;;5124306;28;19924;-66
2022/06/15 05:26:24;;;;;;;;;;;;;;;;;;5125265;28;19928;-66
2022/06/15 05:28:50;;;;;;;;;;;;;;;;;;5124300;28;19931;-68
2022/06/15 05:31:18;;;;;;;;;;;;;;;;;;5125412;28;19923;-68
2022/06/15 05:33:44;;;;;;;;;;;;;;;;;;5125687;28;19924;-67
2022/06/15 05:36:10;;;;;;;;;;;;;;;;;;5125732;28;19931;-67
2022/06/15 05:38:36;;;;;;;;;;;;;;;;;;5125363;28;19924;-68
2022/06/15 05:41:02;;;;;;;;;;;;;;;;;;5124262;28;20018;-68
2022/06/15 05:43:29;;;;;;;;;;;;;;;;;;5125995;28;19924;-68
2022/06/15 05:45:54;;;;;;;;;;;;;;;;;;5124614;28;19928;-68
2022/06/15 05:48:20;;;;;;;;;;;;;;;;;;5125072;28;19928;-68
2022/06/15 05:50:46;;;;;;;;;;;;;;;;;;5124959;28;19994;-68
2022/06/15 05:53:13;;;;;;;;;;;;;;;;;;5123830;28;19931;-68
2022/06/15 05:55:39;;;;;;;;;;;;;;;;;;5123719;28;19923;-68
2022/06/15 05:58:05;;;;;;;;;;;;;;;;;;5123071;28;19967;-68
2022/06/15 06:00:31;;;;;;;;;;;;;;;;;;5124890;28;19924;-68
2022/06/15 06:02:57;;;;;;;;;;;;;;;;;;5125173;28;19986;-68
2022/06/15 06:05:23;;;;;;;;;;;;;;;;;;5123909;28;19967;-68
2022/06/15 06:07:49;;;;;;;;;;;;;;;;;;5124567;28;19986;-68
2022/06/15 06:10:15;;;;;;;;;;;;;;;;;;5124832;28;19924;-68
2022/06/15 06:12:41;;;;;;;;;;;;;;;;;;5123721;28;19973;-69
2022/06/15 06:15:07;;;;;;;;;;;;;;;;;;5123295;28;19945;-69
2022/06/15 06:17:33;;;;;;;;;;;;;;;;;;5121019;28;19989;-68
2022/06/15 06:19:59;;;;;;;;;;;;;;;;;;5124001;28;19931;-68
2022/06/15 06:22:25;;;;;;;;;;;;;;;;;;5125515;28;20046;-68
2022/06/15 06:24:51;;;;;;;;;;;;;;;;;;5125354;28;19935;-68
2022/06/15 06:27:17;;;;;;;;;;;;;;;;;;5124023;28;19931;-68
2022/06/15 06:29:43;;;;;;;;;;;;;;;;;;5125139;28;19931;-68
2022/06/15 06:32:09;;;;;;;;;;;;;;;;;;5125148;28;19928;-68
2022/06/15 06:34:35;;;;;;;;;;;;;;;;;;5124942;28;20353;-68
2022/06/15 06:37:02;;;;;;;;;;;;;;;;;;5123852;28;19923;-68
2022/06/15 06:39:28;;;;;;;;;;;;;;;;;;5125379;28;19924;-64
2022/06/15 06:41:54;;;;;;;;;;;;;;;;;;5125140;28;19930;-64
2022/06/15 06:44:20;;;;;;;;;;;;;;;;;;5125205;28;20015;-64
2022/06/15 06:46:46;;;;;;;;;;;;;;;;;;5125494;28;19932;-64
2022/06/15 06:49:12;;;;;;;;;;;;;;;;;;5125009;28;19959;-64
2022/06/15 06:51:38;;;;;;;;;;;;;;;;;;5125160;28;19945;-64
2022/06/15 06:54:04;;;;;;;;;;;;;;;;;;5125038;28;19924;-64
2022/06/15 06:56:30;;;;;;;;;;;;;;;;;;5125153;28;19923;-64
2022/06/15 06:58:56;;;;;;;;;;;;;;;;;;5125016;28;19924;-64
2022/06/15 07:01:22;;;;;;;;;;;;;;;;;;5126961;28;20345;-64
2022/06/15 07:03:48;;;;;;;;;;;;;;;;;;5128632;27;19924;-64
2022/06/15 07:06:14;;;;;;;;;;;;;;;;;;5128797;28;19975;-64
2022/06/15 07:08:40;;;;;;;;;;;;;;;;;;5128298;28;19927;-64
2022/06/15 07:11:06;;;;;;;;;;;;;;;;;;5127423;28;19992;-64
2022/06/15 07:13:32;;;;;;;;;;;;;;;;;;5128499;28;19924;-64
2022/06/15 07:15:58;;;;;;;;;;;;;;;;;;5128174;28;19945;-64
2022/06/15 07:18:24;;;;;;;;;;;;;;;;;;5128008;28;19923;-65
2022/06/15 07:20:50;;;;;;;;;;;;;;;;;;5127438;28;19924;-64
2022/06/15 07:23:16;;;;;;;;;;;;;;;;;;5128419;28;19924;-64
2022/06/15 07:25:42;;;;;;;;;;;;;;;;;;5128112;28;20299;-64
2022/06/15 07:28:08;;;;;;;;;;;;;;;;;;5126534;28;19927;-64
2022/06/15 07:30:34;;;;;;;;;;;;;;;;;;5128258;28;19924;-65
2022/06/15 07:33:00;;;;;;;;;;;;;;;;;;5128073;28;19996;-65
2022/06/15 07:35:26;;;;;;;;;;;;;;;;;;5128356;28;19983;-64
2022/06/15 07:37:52;;;;;;;;;;;;;;;;;;5127957;28;19930;-65
2022/06/15 07:40:20;;;;;;;;;;;;;;;;;;5128113;28;19938;-64
2022/06/15 07:42:46;;;;;;;;;;;;;;;;;;5128050;28;19923;-64
2022/06/15 07:45:12;;;;;;;;;;;;;;;;;;5127698;28;19924;-64
2022/06/15 07:50:23;;;;;;;;;;;;;;;;;;5127675;28;19923;-64
2022/06/15 07:52:50;;;;;;;;;;;;;;;;;;5127797;28;19924;-64
2022/06/15 07:55:16;;;;;;;;;;;;;;;;;;5122588;28;19949;-65
2022/06/15 07:57:42;;;;;;;;;;;;;;;;;;5127129;28;19923;-64
2022/06/15 08:00:08;;;;;;;;;;;;;;;;;;5127132;28;19931;-64
2022/06/15 08:02:34;;;;;;;;;;;;;;;;;;5127671;28;19930;-64
2022/06/15 08:05:00;;;;;;;;;;;;;;;;;;5127228;28;19977;-65
2022/06/15 08:07:26;;;;;;;;;;;;;;;;;;5127206;28;19928;-64
2022/06/15 08:09:52;;;;;;;;;;;;;;;;;;5126923;28;19924;-64
2022/06/15 08:12:19;;;;;;;;;;;;;;;;;;5125508;28;19924;-66
2022/06/15 08:14:45;;;;;;;;;;;;;;;;;;5127026;28;19935;-64
2022/06/15 08:17:11;;;;;;;;;;;;;;;;;;5127080;28;19931;-64
2022/06/15 08:19:37;;;;;;;;;;;;;;;;;;5126951;28;19924;-64
2022/06/15 08:22:03;;;;;;;;;;;;;;;;;;5127388;28;19927;-65
2022/06/15 08:24:29;;;;;;;;;;;;;;;;;;5127081;28;20337;-65
2022/06/15 08:26:55;;;;;;;;;;;;;;;;;;5155958;27;20459;-65
2022/06/15 08:29:21;;;;;;;;;;;;;;;;;;5126186;27;19927;-64
2022/06/15 08:31:47;;;;;;;;;;;;;;;;;;5126751;28;19934;-65
2022/06/15 08:34:13;;;;;;;;;;;;;;;;;;5119235;28;19930;-64
2022/06/15 08:36:39;;;;;;;;;;;;;;;;;;5119592;27;19930;-64
2022/06/15 08:39:05;;;;;;;;;;;;;;;;;;5120249;28;19981;-64
2022/06/15 08:41:31;;;;;;;;;;;;;;;;;;5126504;27;19924;-65
2022/06/15 08:43:57;;;;;;;;;;;;;;;;;;5125911;28;19928;-64
2022/06/15 08:46:23;;;;;;;;;;;;;;;;;;5125949;27;19930;-64
2022/06/15 08:48:50;;;;;;;;;;;;;;;;;;5121932;28;19924;-64
2022/06/15 08:51:16;;;;;;;;;;;;;;;;;;5121575;28;19991;-64
2022/06/15 08:53:42;;;;;;;;;;;;;;;;;;5122143;27;19981;-64
2022/06/15 08:56:10;;;;;;;;;;;;;;;;;;5126287;28;19977;-64
2022/06/15 08:58:36;;;;;;;;;;;;;;;;;;5125794;28;19934;-64
2022/06/15 09:01:02;;;;;;;;;;;;;;;;;;5111921;28;19962;-64
2022/06/15 09:03:28;;;;;;;;;;;;;;;;;;5125793;28;19924;-64
2022/06/15 09:05:54;;;;;;;;;;;;;;;;;;5126327;28;19924;-64
2022/06/15 09:08:20;;;;;;;;;;;;;;;;;;5126423;28;19924;-65
2022/06/15 09:10:46;;;;;;;;;;;;;;;;;;5126196;28;20021;-64
2022/06/15 09:13:12;;;;;;;;;;;;;;;;;;5124280;28;19936;-64
2022/06/15 09:15:38;;;;;;;;;;;;;;;;;;5124694;28;19931;-64
2022/06/15 09:18:05;;;;;;;;;;;;;;;;;;5125431;28;19923;-64
2022/06/15 09:20:30;;;;;;;;;;;;;;;;;;5125433;28;19935;-64
2022/06/15 09:22:56;;;;;;;;;;;;;;;;;;5125151;27;19919;-64
2022/06/15 09:25:22;;;;;;;;;;;;;;;;;;5117931;28;19927;-64
2022/06/15 09:27:48;;;;;;;;;;;;;;;;;;5125649;27;20018;-64
2022/06/15 09:30:15;;;;;;;;;;;;;;;;;;5125504;28;20007;-64
2022/06/15 09:32:41;;;;;;;;;;;;;;;;;;5125629;27;19945;-64
2022/06/15 09:35:08;;;;;;;;;;;;;;;;;;5118457;28;19924;-64
2022/06/15 09:37:34;;;;;;;;;;;;;;;;;;5125644;28;19971;-64
2022/06/15 09:40:00;;;;;;;;;;;;;;;;;;5125778;28;19980;-64
2022/06/15 09:42:26;;;;;;;;;;;;;;;;;;5125589;28;19927;-64
2022/06/15 09:44:52;;;;;;;;;;;;;;;;;;5125574;28;19975;-64
2022/06/15 09:47:18;;;;;;;;;;;;;;;;;;5125923;28;19923;-64
2022/06/15 09:49:45;;;;;;;;;;;;;;;;;;5125429;28;19987;-64
2022/06/15 09:52:11;;;;;;;;;;;;;;;;;;5125608;28;19924;-64
2022/06/15 09:54:38;;;;;;;;;;;;;;;;;;5125471;27;19923;-64
2022/06/15 09:57:04;;;;;;;;;;;;;;;;;;5125374;28;19935;-64
2022/06/15 09:59:33;;;;;;;;;;;;;;;;;;5123611;28;19923;-64
2022/06/15 10:01:59;;;;;;;;;;;;;;;;;;5118729;28;20364;-64
2022/06/15 10:04:25;;;;;;;;;;;;;;;;;;5125379;28;19931;-64
2022/06/15 10:06:51;;;;;;;;;;;;;;;;;;5125528;28;19959;-64
2022/06/15 10:09:17;;;;;;;;;;;;;;;;;;5123654;28;19966;-65
2022/06/15 10:11:43;;;;;;;;;;;;;;;;;;5125508;28;19949;-65
2022/06/15 10:14:09;;;;;;;;;;;;;;;;;;5125316;28;19923;-65
2022/06/15 10:16:35;;;;;;;;;;;;;;;;;;5119031;28;19982;-65
2022/06/15 10:19:01;;;;;;;;;;;;;;;;;;5125072;27;19963;-65
2022/06/15 10:21:28;;;;;;;;;;;;;;;;;;5124937;28;19923;-65
2022/06/15 10:23:54;;;;;;;;;;;;;;;;;;5125243;27;19928;-64
2022/06/15 10:26:20;;;;;;;;;;;;;;;;;;5121670;27;20302;-64
2022/06/15 10:28:46;;;;;;;;;;;;;;;;;;5124221;27;19955;-65
2022/06/15 10:31:12;;;;;;;;;;;;;;;;;;5124837;27;19992;-63
2022/06/15 10:33:38;;;;;;;;;;;;;;;;;;5123865;28;20024;-64
2022/06/15 10:36:04;;;;;;;;;;;;;;;;;;5127312;27;19963;-64
2022/06/15 10:38:30;;;;;;;;;;;;;;;;;;5129136;27;19924;-64
2022/06/15 10:40:56;;;;;;;;;;;;;;;;;;5128794;27;19934;-65
2022/06/15 10:43:22;;;;;;;;;;;;;;;;;;5129019;27;19924;-65
2022/06/15 10:45:48;;;;;;;;;;;;;;;;;;5128610;28;19931;-65
2022/06/15 10:48:14;;;;;;;;;;;;;;;;;;5127071;28;19935;-64
2022/06/15 10:50:40;;;;;;;;;;;;;;;;;;5128839;28;19924;-63
2022/06/15 10:53:06;;;;;;;;;;;;;;;;;;5128810;28;19932;-65
2022/06/15 11:03:46;;;;;;;;;;;;;;;;;;5128046;28;19934;-63
2022/06/15 11:06:12;;;;;;;;;;;;;;;;;;5127241;27;19975;-63
2022/06/15 11:08:38;;;;;;;;;;;;;;;;;;5128261;28;19987;-64
2022/06/15 11:11:04;;;;;;;;;;;;;;;;;;5157373;27;19963;-64
2022/06/15 11:13:30;;;;;;;;;;;;;;;;;;5116750;28;19959;-64
2022/06/15 11:18:40;;;;;;;;;;;;;;;;;;5128032;28;19923;-64
2022/06/15 11:21:07;;;;;;;;;;;;;;;;;;5128103;28;19924;-64
2022/06/15 11:23:33;;;;;;;;;;;;;;;;;;5128082;28;19931;-64
2022/06/15 11:25:59;;;;;;;;;;;;;;;;;;5121958;27;20018;-64
2022/06/15 11:28:25;;;;;;;;;;;;;;;;;;5123864;28;19979;-64
2022/06/15 11:30:51;;;;;;;;;;;;;;;;;;5127899;28;19928;-64
2022/06/15 11:33:17;;;;;;;;;;;;;;;;;;5127612;28;19930;-64
2022/06/15 11:35:43;;;;;;;;;;;;;;;;;;5122297;28;19945;-64
2022/06/15 11:38:09;;;;;;;;;;;;;;;;;;5128015;28;19932;-64
2022/06/15 11:40:35;;;;;;;;;;;;;;;;;;5127942;28;19931;-64
2022/06/15 11:43:01;;;;;;;;;;;;;;;;;;5126336;28;20310;-64
2022/06/15 11:45:27;;;;;;;;;;;;;;;;;;5126772;28;20015;-64
2022/06/15 11:47:53;;;;;;;;;;;;;;;;;;5127306;28;19924;-64
2022/06/15 11:50:19;;;;;;;;;;;;;;;;;;5127680;28;19923;-63
2022/06/15 11:52:45;;;;;;;;;;;;;;;;;;5127613;28;19935;-63
2022/06/15 11:55:14;;;;;;;;;;;;;;;;;;5127793;27;19924;-64
2022/06/15 11:57:40;;;;;;;;;;;;;;;;;;5127600;27;19924;-63
2022/06/15 12:00:07;;;;;;;;;;;;;;;;;;5127011;28;19928;-63
2022/06/15 12:02:33;;;;;;;;;;;;;;;;;;5126777;28;19928;-63
2022/06/15 12:04:59;;;;;;;;;;;;;;;;;;5127714;28;20081;-62
2022/06/15 12:07:25;;;;;;;;;;;;;;;;;;5121161;28;20362;-62
2022/06/15 12:09:51;;;;;;;;;;;;;;;;;;5126943;28;20150;-63
2022/06/15 12:15:02;;;;;;;;;;;;;;;;;;5122673;28;19924;-62
2022/06/15 12:17:29;;;;;;;;;;;;;;;;;;5121324;28;19924;-63
2022/06/15 12:19:55;;;;;;;;;;;;;;;;;;5127287;28;19924;-63
2022/06/15 12:22:21;;;;;;;;;;;;;;;;;;5127144;28;19995;-62
2022/06/15 12:24:47;;;;;;;;;;;;;;;;;;5126132;28;19919;-62
2022/06/15 12:27:14;;;;;;;;;;;;;;;;;;5127185;28;19931;-62
2022/06/15 12:29:41;;;;;;;;;;;;;;;;;;5126615;28;19924;-62
2022/06/15 12:32:31;;;;;;;;;;;;;;;;;;5126955;28;19986;-62
2022/06/15 12:34:53;;;;;;;;;;;;;;;;;;5126398;27;19924;-62
2022/06/15 12:37:19;;;;;;;;;;;;;;;;;;5125065;28;19980;-63
2022/06/15 12:39:45;;;;;;;;;;;;;;;;;;5126543;28;19987;-62
2022/06/15 12:42:12;;;;;;;;;;;;;;;;;;5121280;28;20018;-62
2022/06/15 12:44:38;;;;;;;;;;;;;;;;;;5120254;28;19924;-64
2022/06/15 12:47:04;;;;;;;;;;;;;;;;;;5126913;28;19946;-63
2022/06/15 12:49:30;;;;;;;;;;;;;;;;;;5126597;28;19928;-63
2022/06/15 12:51:56;;;;;;;;;;;;;;;;;;5126504;28;19924;-62
2022/06/15 12:54:22;;;;;;;;;;;;;;;;;;5126779;27;19979;-62
2022/06/15 12:56:48;;;;;;;;;;;;;;;;;;5126428;28;19923;-63
2022/06/15 12:59:14;;;;;;;;;;;;;;;;;;5125424;28;19935;-63
2022/06/15 13:01:40;;;;;;;;;;;;;;;;;;5126641;28;19927;-63
2022/06/15 13:04:06;;;;;;;;;;;;;;;;;;5126225;28;19963;-63
2022/06/15 13:06:32;;;;;;;;;;;;;;;;;;5126371;28;19970;-62
2022/06/15 13:08:58;;;;;;;;;;;;;;;;;;5126311;28;19931;-61
2022/06/15 13:11:24;;;;;;;;;;;;;;;;;;5126270;28;19924;-64
2022/06/15 13:13:50;;;;;;;;;;;;;;;;;;5124975;28;19927;-63
2022/06/15 13:16:16;;;;;;;;;;;;;;;;;;5122438;28;19930;-64
2022/06/15 13:18:43;;;;;;;;;;;;;;;;;;5125730;28;19924;-63
2022/06/15 13:21:09;;;;;;;;;;;;;;;;;;5125539;28;19924;-63
2022/06/15 13:23:35;;;;;;;;;;;;;;;;;;5125269;28;19945;-63
2022/06/15 13:26:01;;;;;;;;;;;;;;;;;;5125401;28;19931;-63
2022/06/15 13:28:27;;;;;;;;;;;;;;;;;;5124587;28;20411;-63
2022/06/15 13:30:54;;;;;;;;;;;;;;;;;;5125563;28;19924;-63
2022/06/15 13:33:20;;;;;;;;;;;;;;;;;;5125057;28;19924;-63
2022/06/15 13:35:46;;;;;;;;;;;;;;;;;;5125354;28;19978;-64
2022/06/15 13:38:12;;;;;;;;;;;;;;;;;;5119085;28;19924;-63
2022/06/15 13:40:38;;;;;;;;;;;;;;;;;;5125072;28;19924;-63
2022/06/15 13:43:04;;;;;;;;;;;;;;;;;;5123240;27;20341;-63
2022/06/15 13:45:30;;;;;;;;;;;;;;;;;;5125425;28;19928;-63
2022/06/15 13:47:56;;;;;;;;;;;;;;;;;;5158629;27;19927;-64
2022/06/15 13:50:22;;;;;;;;;;;;;;;;;;5125549;28;19930;-63
2022/06/15 13:52:48;;;;;;;;;;;;;;;;;;5125302;28;19924;-63
2022/06/15 13:55:14;;;;;;;;;;;;;;;;;;5125191;28;19923;-63
2022/06/15 13:57:41;;;;;;;;;;;;;;;;;;5121996;27;20287;-64
2022/06/15 14:00:07;;;;;;;;;;;;;;;;;;5125232;28;19931;-63
2022/06/15 14:02:33;;;;;;;;;;;;;;;;;;5125024;28;19963;-63
2022/06/15 14:04:59;;;;;;;;;;;;;;;;;;5115127;28;19924;-63
2022/06/15 14:07:25;;;;;;;;;;;;;;;;;;5123705;28;19920;-63
2022/06/15 14:09:51;;;;;;;;;;;;;;;;;;5127327;28;19924;-64
2022/06/15 14:12:17;;;;;;;;;;;;;;;;;;5128379;28;19928;-63
2022/06/15 14:14:43;;;;;;;;;;;;;;;;;;5129253;28;20403;-63
2022/06/15 14:17:09;;;;;;;;;;;;;;;;;;5129588;28;19924;-64
2022/06/15 14:19:35;;;;;;;;;;;;;;;;;;5126793;28;19935;-63
2022/06/15 14:22:01;;;;;;;;;;;;;;;;;;5129192;28;19924;-63
2022/06/15 14:24:33;;;;;;;;;;;;;;;;;;5118965;27;19932;-64
2022/06/15 14:26:59;;;;;;;;;;;;;;;;;;5124373;28;20184;-64
2022/06/15 14:29:25;;;;;;;;;;;;;;;;;;5153448;27;19994;-64
2022/06/15 14:31:51;;;;;;;;;;;;;;;;;;5128993;27;19931;-64
2022/06/15 14:34:17;;;;;;;;;;;;;;;;;;5161943;27;19924;-63
2022/06/15 14:36:43;;;;;;;;;;;;;;;;;;5122947;28;19931;-63
2022/06/15 14:39:09;;;;;;;;;;;;;;;;;;5128036;28;20410;-63
2022/06/15 14:41:35;;;;;;;;;;;;;;;;;;5128970;28;20202;-63
2022/06/15 14:44:03;;;;;;;;;;;;;;;;;;5129013;28;19947;-63
2022/06/15 14:46:29;;;;;;;;;;;;;;;;;;5128664;28;19931;-63
2022/06/15 14:48:55;;;;;;;;;;;;;;;;;;5128747;28;19987;-63
2022/06/15 14:51:21;;;;;;;;;;;;;;;;;;5128659;28;19924;-63
2022/06/15 14:53:47;;;;;;;;;;;;;;;;;;5125169;27;19923;-64
2022/06/15 14:56:13;;;;;;;;;;;;;;;;;;5129484;27;19933;-64
2022/06/15 14:58:39;;;;;;;;;;;;;;;;;;5126903;28;20027;-64
2022/06/15 15:01:05;;;;;;;;;;;;;;;;;;5127486;27;19924;-64
2022/06/15 15:03:31;;;;;;;;;;;;;;;;;;5126775;28;19924;-64
2022/06/15 15:05:57;;;;;;;;;;;;;;;;;;5136723;27;20323;-63
2022/06/15 15:08:23;;;;;;;;;;;;;;;;;;5136383;27;19924;-63
2022/06/15 15:10:50;;;;;;;;;;;;;;;;;;5128844;27;19924;-64
2022/06/15 15:13:16;;;;;;;;;;;;;;;;;;5162853;27;19928;-64
2022/06/15 15:15:42;;;;;;;;;;;;;;;;;;5124514;27;19924;-63
2022/06/15 15:18:08;;;;;;;;;;;;;;;;;;5139071;27;19931;-63
2022/06/15 15:20:34;;;;;;;;;;;;;;;;;;5138966;27;19923;-64
2022/06/15 15:23:00;;;;;;;;;;;;;;;;;;5132791;27;19924;-64
2022/06/15 15:25:26;;;;;;;;;;;;;;;;;;5127653;27;19928;-64
2022/06/15 15:39:10;;;;;;;;;;;;;;;;;;5079782;28;19924;-64
2022/06/15 15:41:36;;;;;;;;;;;;;;;;;;5084653;28;19931;-65
2022/06/15 15:44:04;;;;;;;;;;;;;;;;;;5082856;28;20029;-64
2022/06/15 15:46:30;;;;;;;;;;;;;;;;;;5093719;28;19980;-64
2022/06/15 15:48:56;;;;;;;;;;;;;;;;;;5088872;28;19929;-64
2022/06/15 15:51:22;;;;;;;;;;;;;;;;;;5084611;28;19931;-64
2022/06/15 15:53:48;;;;;;;;;;;;;;;;;;5084315;28;19951;-64
2022/06/15 15:56:14;;;;;;;;;;;;;;;;;;5084410;28;20007;-64
2022/06/15 15:58:43;;;;;;;;;;;;;;;;;;5084097;28;19925;-65
2022/06/15 16:01:09;;;;;;;;;;;;;;;;;;5079520;28;20059;-64
2022/06/15 16:03:35;;;;;;;;;;;;;;;;;;5068663;28;20394;-64
2022/06/15 16:06:01;;;;;;;;;;;;;;;;;;5106513;28;19981;-64
2022/06/15 16:08:27;;;;;;;;;;;;;;;;;;5106748;28;19981;-64
2022/06/15 16:10:53;;;;;;;;;;;;;;;;;;5104320;28;19924;-64
2022/06/15 16:13:19;;;;;;;;;;;;;;;;;;5101295;28;19931;-64
2022/06/15 16:15:47;;;;;;;;;;;;;;;;;;5104957;28;19924;-64
2022/06/15 16:18:15;;;;;;;;;;;;;;;;;;5108793;28;20411;-65
2022/06/15 16:20:42;;;;;;;;;;;;;;;;;;5106997;28;19924;-64
2022/06/15 16:23:08;;;;;;;;;;;;;;;;;;5106897;28;19924;-64
2022/06/15 16:25:34;;;;;;;;;;;;;;;;;;5097299;28;19924;-64
2022/06/15 16:28:01;;;;;;;;;;;;;;;;;;5111187;28;19928;-64
2022/06/15 16:30:29;;;;;;;;;;;;;;;;;;5105162;27;19924;-64
2022/06/15 16:32:55;;;;;;;;;;;;;;;;;;5104961;28;20011;-65
2022/06/15 16:35:21;;;;;;;;;;;;;;;;;;5105360;28;19924;-64
2022/06/15 16:37:47;;;;;;;;;;;;;;;;;;5105509;28;19924;-64
2022/06/15 16:40:13;;;;;;;;;;;;;;;;;;5106061;28;20391;-64
2022/06/15 16:42:39;;;;;;;;;;;;;;;;;;5106309;28;19924;-64
2022/06/15 16:45:05;;;;;;;;;;;;;;;;;;5104135;28;19931;-64
2022/06/15 16:47:31;;;;;;;;;;;;;;;;;;5105304;28;19927;-64
2022/06/15 16:49:57;;;;;;;;;;;;;;;;;;5104491;28;19946;-64
2022/06/15 16:52:23;;;;;;;;;;;;;;;;;;5104648;28;19924;-64
2022/06/15 16:54:49;;;;;;;;;;;;;;;;;;5104089;27;19935;-65
2022/06/15 16:57:15;;;;;;;;;;;;;;;;;;5108457;28;19924;-65
2022/06/15 16:59:41;;;;;;;;;;;;;;;;;;5105321;28;19931;-63
2022/06/15 17:02:07;;;;;;;;;;;;;;;;;;5122025;28;19935;-65
2022/06/15 17:04:33;;;;;;;;;;;;;;;;;;5123209;27;20328;-64
2022/06/15 17:06:59;;;;;;;;;;;;;;;;;;5127389;27;20821;-65
2022/06/15 17:09:25;;;;;;;;;;;;;;;;;;5124163;28;19953;-64